Time;durP1;ratioP1;P1;durP2;ratioP2;P2;SDS_P1;SDS_P2;PMS_P1;PMS_P2;Temp;Humidity;BMP_temperature;BMP_pressure;BME280_temperature;BME280_humidity;BME280_pressure;Samples;Min_cycle;Max_cycle;Signal;HPM_P1;HPM_P2
2023/08/22 00:01:22;;;;;;;0.10;0.10;;;;;;;;;;4962456;28;20043;-82
2023/08/22 00:03:47;;;;;;;0.00;0.00;;;;;;;22.86;nan;100752.47;4960172;28;20036;-82
2023/08/22 00:06:12;;;;;;;0.00;0.00;;;;;;;22.85;nan;100680.69;4955395;28;20043;-82
2023/08/22 00:08:38;;;;;;;0.00;0.00;;;;;;;22.38;100.00;54041.75;4967980;28;20034;-83
2023/08/22 00:11:03;;;;;;;0.00;0.00;;;;;;;;;;4975134;28;20089;-82
2023/08/22 00:13:28;;;;;;;0.00;0.00;;;;;;;22.80;nan;100696.75;4989286;28;20035;-82
2023/08/22 00:15:58;;;;;;;0.00;0.00;;;;;;;;;;4974070;28;20061;-82
2023/08/22 00:18:23;;;;;;;0.00;0.00;;;;;;;22.67;nan;100686.97;4963788;28;20126;-82
2023/08/22 00:20:48;;;;;;;0.10;0.10;;;;;;;22.64;nan;100733.22;4954849;29;20166;-82
2023/08/22 00:23:13;;;;;;;0.00;0.00;;;;;;;;;;4954025;28;20031;-82
2023/08/22 00:25:39;;;;;;;0.00;0.00;;;;;;;22.62;nan;100692.19;4970034;28;20275;-82
2023/08/22 00:28:04;;;;;;;0.00;0.00;;;;;;;22.63;nan;100845.63;4979490;28;20111;-83
2023/08/22 00:30:29;;;;;;;0.00;0.00;;;;;;;22.65;nan;100687.19;4973679;28;20274;-83
2023/08/22 00:32:54;;;;;;;0.00;0.00;;;;;;;;;;4978340;28;20042;-83
2023/08/22 00:35:24;;;;;;;0.00;0.00;;;;;;;22.66;nan;100737.34;4971666;28;20297;-83
2023/08/22 00:37:49;;;;;;;0.00;0.00;;;;;;;22.69;nan;100687.53;4983817;28;20042;-83
2023/08/22 00:40:14;;;;;;;0.00;0.00;;;;;;;;;;4978163;28;20046;-82
2023/08/22 00:42:39;;;;;;;0.00;0.00;;;;;;;22.69;nan;100763.88;4970394;28;20334;-82
2023/08/22 00:45:05;;;;;;;0.10;0.10;;;;;;;22.66;nan;100678.03;4978932;28;20112;-83
2023/08/22 00:47:31;;;;;;;0.10;0.10;;;;;;;;;;4975440;28;20429;-82
2023/08/22 00:49:56;;;;;;;0.00;0.00;;;;;;;;;;4991335;28;20053;-82
2023/08/22 00:52:21;;;;;;;0.03;0.03;;;;;;;22.66;nan;100720.34;4963049;28;20051;-83
2023/08/22 00:54:48;;;;;;;0.00;0.00;;;;;;;22.69;nan;100671.38;4962409;28;20203;-83
2023/08/22 00:57:13;;;;;;;0.00;0.00;;;;;;;;;;4983502;28;20035;-83
2023/08/22 00:59:39;;;;;;;0.00;0.00;;;;;;;22.67;nan;100728.22;4974410;28;20066;-83
2023/08/22 01:02:07;;;;;;;0.05;0.05;;;;;;;;;;4982097;28;20031;-83
2023/08/22 01:04:32;;;;;;;0.10;0.10;;;;;;;;;;4997651;28;20046;-83
2023/08/22 01:07:09;;;;;;;0.00;0.00;;;;;;;22.61;nan;100722.91;4982183;28;20052;-83
2023/08/22 01:09:42;;;;;;;0.10;0.10;;;;;;;22.58;nan;100674.84;4979906;28;20084;-83
2023/08/22 01:12:10;;;;;;;0.00;0.00;;;;;;;22.56;nan;100682.34;4980812;28;20037;-83
2023/08/22 01:14:41;;;;;;;0.00;0.00;;;;;;;22.51;nan;100647.16;4981996;28;20296;-83
2023/08/22 01:17:07;;;;;;;0.00;0.00;;;;;;;;;;4965360;28;20039;-82
2023/08/22 01:19:32;;;;;;;0.00;0.00;;;;;;;;;;4961735;28;20296;-83
2023/08/22 01:21:57;;;;;;;0.00;0.00;;;;;;;22.40;nan;100716.91;4963345;28;20506;-83
2023/08/22 01:24:22;;;;;;;0.07;0.07;;;;;;;;;;4963300;28;20043;-83
2023/08/22 01:26:48;;;;;;;0.00;0.00;;;;;;;22.31;nan;100668.97;4963614;28;20263;-82
2023/08/22 01:29:20;;;;;;;0.00;0.00;;;;;;;22.26;nan;100700.13;4961564;29;20035;-82
2023/08/22 01:31:56;;;;;;;0.10;0.10;;;;;;;;;;4977034;28;20057;-83
2023/08/22 01:34:32;;;;;;;0.10;0.10;;;;;;;22.19;nan;100658.94;4988565;28;20031;-82
2023/08/22 01:36:59;;;;;;;0.10;0.10;;;;;;;22.19;nan;100669.72;4967313;28;20059;-82
2023/08/22 01:39:25;;;;;;;0.10;0.10;;;;;;;;;;4961865;28;20072;-83
2023/08/22 01:41:50;;;;;;;0.10;0.10;;;;;;;22.22;nan;100666.59;4961692;28;20528;-83
2023/08/22 01:44:16;;;;;;;0.00;0.00;;;;;;;;;;4973114;28;20031;-82
2023/08/22 01:46:41;;;;;;;0.07;0.07;;;;;;;22.25;nan;100665.31;4979140;28;20038;-82
2023/08/22 01:49:06;;;;;;;0.00;0.00;;;;;;;;;;4978230;28;20122;-82
2023/08/22 01:51:31;;;;;;;0.00;0.00;;;;;;;;;;4975905;28;20526;-83
2023/08/22 01:53:56;;;;;;;0.00;0.00;;;;;;;;;;4979718;28;20030;-82
2023/08/22 01:56:22;;;;;;;0.10;0.10;;;;;;;22.19;nan;100650.84;4971062;28;20289;-82
2023/08/22 01:58:47;;;;;;;0.00;0.00;;;;;;;;;;4980366;28;20031;-83
2023/08/22 02:01:13;;;;;;;0.03;0.03;;;;;;;22.14;nan;100647.97;4981247;28;20057;-83
2023/08/22 02:03:40;;;;;;;0.00;0.00;;;;;;;22.10;nan;100641.44;4979242;28;20039;-83
2023/08/22 02:06:05;;;;;;;0.00;0.00;;;;;;;;;;4972020;28;20036;-83
2023/08/22 02:08:30;;;;;;;0.00;0.00;;;;;;;22.06;nan;100640.22;4978825;28;20042;-82
2023/08/22 02:10:56;;;;;;;0.10;0.10;;;;;;;22.05;nan;100595.50;4995726;28;20353;-82
2023/08/22 02:13:21;;;;;;;0.00;0.00;;;;;;;;;;4979047;28;20058;-82
2023/08/22 02:15:46;;;;;;;0.00;0.00;;;;;;;;;;4978497;28;20093;-83
2023/08/22 02:18:11;;;;;;;0.10;0.10;;;;;;;;;;4979568;28;20031;-82
2023/08/22 02:20:36;;;;;;;0.10;0.10;;;;;;;;;;4978946;28;20331;-82
2023/08/22 02:23:02;;;;;;;0.00;0.00;;;;;;;;;;4971214;28;20036;-83
2023/08/22 02:25:28;;;;;;;0.00;0.00;;;;;;;21.81;nan;100616.91;4959520;28;20607;-83
2023/08/22 02:27:53;;;;;;;0.10;0.10;;;;;;;;;;4975882;28;20035;-82
2023/08/22 02:30:19;;;;;;;0.00;0.00;;;;;;;;;;4964187;28;20536;-82
2023/08/22 02:32:44;;;;;;;0.10;0.10;;;;;;;;;;4976937;28;20043;-82
2023/08/22 02:35:09;;;;;;;0.00;0.00;;;;;;;;;;4980058;28;20468;-82
2023/08/22 02:37:34;;;;;;;0.10;0.10;;;;;;;21.43;nan;100625.16;4976751;28;20030;-82
2023/08/22 02:40:00;;;;;;;0.10;0.10;;;;;;;;;;4967426;28;20023;-82
2023/08/22 02:42:25;;;;;;;0.10;0.10;;;;;;;;;;4951861;28;21266;-82
2023/08/22 02:44:50;;;;;;;0.10;0.10;;;;;;;;;;4952024;29;20039;-82
2023/08/22 02:47:15;;;;;;;0.00;0.00;;;;;;;;;;4951637;29;20289;-82
2023/08/22 02:49:41;;;;;;;0.00;0.00;;;;;;;;;;4961773;28;20426;-82
2023/08/22 02:52:06;;;;;;;0.00;0.00;;;;;;;;;;4952114;28;20214;-82
2023/08/22 02:54:31;;;;;;;0.10;0.10;;;;;;;21.49;nan;100656.53;4956098;28;20039;-82
2023/08/22 02:56:56;;;;;;;0.00;0.00;;;;;;;;;;4965192;28;20520;-82
2023/08/22 02:59:21;;;;;;;0.10;0.10;;;;;;;;;;4951111;28;20035;-82
2023/08/22 03:01:47;;;;;;;0.10;0.10;;;;;;;;;;4963622;28;20185;-82
2023/08/22 03:04:12;;;;;;;0.10;0.10;;;;;;;21.48;nan;100648.69;4963216;28;20046;-82
2023/08/22 03:06:37;;;;;;;0.10;0.10;;;;;;;;;;4970790;28;20055;-82
2023/08/22 03:09:03;;;;;;;0.10;0.10;;;;;;;;;;4969952;28;20042;-82
2023/08/22 03:11:28;;;;;;;0.10;0.10;;;;;;;21.42;nan;100639.63;4969814;28;20031;-82
2023/08/22 03:13:53;;;;;;;0.00;0.00;;;;;;;;;;4963897;28;20031;-82
2023/08/22 03:16:19;;;;;;;0.10;0.10;;;;;;;;;;4970451;28;20031;-82
2023/08/22 03:18:44;;;;;;;0.00;0.00;;;;;;;;;;4972813;28;20034;-82
2023/08/22 03:21:09;;;;;;;0.10;0.10;;;;;;;21.34;nan;100647.94;4974267;28;20031;-82
2023/08/22 03:23:34;;;;;;;0.10;0.10;;;;;;;;;;4975130;28;20039;-82
2023/08/22 03:26:00;;;;;;;0.00;0.00;;;;;;;;;;4975655;28;20045;-82
2023/08/22 03:28:26;;;;;;;0.10;0.10;;;;;;;21.16;nan;100657.59;4971637;28;20038;-82
2023/08/22 03:30:58;;;;;;;0.00;0.00;;;;;;;;;;4966374;28;20030;-82
2023/08/22 03:33:24;;;;;;;0.10;0.10;;;;;;;20.99;nan;100646.53;4956254;28;20444;-82
2023/08/22 03:35:50;;;;;;;0.03;0.03;;;;;;;;;;4969506;28;20038;-82
2023/08/22 03:38:15;;;;;;;0.10;0.10;;;;;;;;;;4966399;28;20150;-82
2023/08/22 03:40:40;;;;;;;0.10;0.10;;;;;;;20.83;nan;100654.31;4975287;28;20090;-82
2023/08/22 03:43:05;;;;;;;0.00;0.00;;;;;;;;;;4975101;28;20027;-84
2023/08/22 03:45:30;;;;;;;0.10;0.10;;;;;;;;;;4974225;28;20408;-83
2023/08/22 03:47:55;;;;;;;;;;;;;;;20.85;nan;100653.06;4991495;28;20039;-84
2023/08/22 03:50:21;;;;;;;0.10;0.10;;;;;;;;;;4974922;28;20013;-83
2023/08/22 03:52:46;;;;;;;0.10;0.10;;;;;;;;;;4976207;28;20271;-83
2023/08/22 03:55:11;;;;;;;0.00;0.00;;;;;;;;;;4975134;28;20433;-86
2023/08/22 03:57:37;;;;;;;0.10;0.10;;;;;;;20.74;nan;100702.94;4975886;28;20035;-82
2023/08/22 04:00:04;;;;;;;0.10;0.10;;;;;;;;;;4975820;28;20507;-83
2023/08/22 04:02:29;;;;;;;0.10;0.10;;;;;;;;;;4990712;28;20400;-83
2023/08/22 04:04:55;;;;;;;0.10;0.10;;;;;;;;;;4975626;28;20034;-85
2023/08/22 04:07:20;;;;;;;0.10;0.10;;;;;;;20.65;nan;100629.00;4974308;28;20039;-85
2023/08/22 04:09:45;;;;;;;0.10;0.10;;;;;;;20.63;nan;100631.06;4976178;28;20066;-83
2023/08/22 04:12:10;;;;;;;0.10;0.10;;;;;;;;;;4975121;28;20125;-83
2023/08/22 04:14:35;;;;;;;0.10;0.10;;;;;;;20.55;nan;100629.47;4974761;28;20266;-82
2023/08/22 04:17:01;;;;;;;0.10;0.10;;;;;;;;;;4974414;28;20058;-84
2023/08/22 04:19:26;;;;;;;0.10;0.10;;;;;;;;;;4974680;28;20305;-83
2023/08/22 04:21:51;;;;;;;;;;;;;;;20.45;nan;100661.31;4974900;28;20062;-84
2023/08/22 04:24:16;;;;;;;;;;;;;;;20.41;nan;100670.81;4991884;28;19918;-85
2023/08/22 04:26:41;;;;;;;;;;;;;;;20.36;nan;100668.78;4992461;28;20013;-86
2023/08/22 04:29:07;;;;;;;;;;;;;;;20.32;nan;100664.84;4976835;28;20385;-85
2023/08/22 04:31:32;;;;;;;;;;;;;;;20.33;nan;100668.38;4978035;28;19914;-85
2023/08/22 04:33:57;;;;;;;;;;;;;;;20.31;nan;100665.09;4994019;28;19914;-85
2023/08/22 04:36:22;;;;;;;;;;;;;;;20.28;nan;100671.69;4978587;28;20013;-85
2023/08/22 04:38:49;;;;;;;;;;;;;;;20.28;nan;100665.50;4994135;28;19918;-87
2023/08/22 04:41:14;;;;;;;;;;;;;;;20.32;nan;100669.41;4994240;28;19980;-83
2023/08/22 04:43:39;;;;;;;;;;;;;;;;;;4978896;28;19918;-83
2023/08/22 04:46:05;;;;;;;;;;;;;;;20.45;nan;100665.84;4980317;28;19937;-84
2023/08/22 04:48:30;;;;;;;;;;;;;;;20.47;nan;100663.78;4984020;28;19914;-84
2023/08/22 04:50:55;;;;;;;;;;;;;;;20.49;nan;100667.88;4985017;28;19925;-85
2023/08/22 04:53:20;;;;;;;;;;;;;;;20.50;nan;100664.19;4984739;28;19914;-84
2023/08/22 04:55:45;;;;;;;;;;;;;;;20.51;nan;100660.44;4985198;28;19966;-88
2023/08/22 04:58:11;;;;;;;;;;;;;;;20.54;nan;100656.50;4998405;28;19921;-85
2023/08/22 05:00:36;;;;;;;;;;;;;;;20.54;nan;100649.25;4982672;28;20344;-87
2023/08/22 05:03:01;;;;;;;;;;;;;;;20.56;nan;100652.59;4982735;28;20295;-84
2023/08/22 05:05:26;;;;;;;;;;;;;;;20.57;nan;100656.13;4982583;28;19921;-86
2023/08/22 05:07:51;;;;;;;;;;;;;;;20.56;nan;100647.22;4995844;28;19922;-83
2023/08/22 05:10:17;;;;;;;;;;;;;;;20.54;nan;100661.88;4981410;28;19921;-85
2023/08/22 05:12:42;;;;;;;;;;;;;;;20.52;nan;100666.63;4980951;28;19919;-84
2023/08/22 05:15:07;;;;;;;;;;;;;;;20.55;nan;100667.06;4981085;28;19914;-83
2023/08/22 05:17:32;;;;;;;;;;;;;;;20.62;nan;100669.72;4960494;28;19918;-84
2023/08/22 05:19:58;;;;;;;;;;;;;;;;;;4960633;28;19999;-84
2023/08/22 05:22:23;;;;;;;;;;;;;;;20.94;nan;100678.63;4959554;28;19921;-84
2023/08/22 05:24:48;;;;;;;;;;;;;;;21.17;nan;100678.06;4960513;28;20017;-83
2023/08/22 05:27:14;;;;;;;;;;;;;;;21.45;nan;100692.97;4959044;28;20434;-84
2023/08/22 05:29:39;;;;;;;;;;;;;;;;;;4959214;29;19921;-85
2023/08/22 05:32:04;;;;;;;;;;;;;;;22.00;nan;100690.41;4959028;28;19946;-86
2023/08/22 05:34:29;;;;;;;;;;;;;;;22.31;nan;100685.97;4965041;28;19914;-85
2023/08/22 05:36:54;;;;;;;;;;;;;;;;;;4959395;29;19925;-83
2023/08/22 05:39:20;;;;;;;;;;;;;;;22.88;nan;100701.78;4961227;28;19993;-85
2023/08/22 05:41:45;;;;;;;;;;;;;;;23.17;nan;100702.88;4960575;28;19915;-83
2023/08/22 05:44:10;;;;;;;;;;;;;;;23.46;nan;100709.25;4958456;28;19921;-85
2023/08/22 05:46:35;;;;;;;;;;;;;;;23.74;nan;100705.91;4958937;29;19914;-83
2023/08/22 05:49:00;;;;;;;;;;;;;;;23.95;nan;100701.81;4958171;28;19946;-86
2023/08/22 05:51:26;;;;;;;;;;;;;;;24.10;nan;100709.41;4959690;28;19922;-87
2023/08/22 05:53:51;;;;;;;;;;;;;;;24.44;nan;100709.59;4957737;28;20423;-84
2023/08/22 05:56:16;;;;;;;;;;;;;;;24.78;nan;100715.13;4957465;28;19918;-85
2023/08/22 05:58:41;;;;;;;;;;;;;;;25.06;nan;100717.00;4959817;28;19914;-85
2023/08/22 06:01:08;;;;;;;;;;;;;;;25.34;nan;100720.78;4963288;28;19959;-85
2023/08/22 06:03:33;;;;;;;;;;;;;;;25.64;nan;100729.38;4976686;28;20172;-83
2023/08/22 06:05:58;;;;;;;;;;;;;;;26.01;nan;100733.50;4976935;28;19918;-85
2023/08/22 06:08:23;;;;;;;;;;;;;;;26.35;nan;100730.69;4975699;28;19914;-84
2023/08/22 06:10:49;;;;;;;;;;;;;;;26.62;nan;100728.03;4977087;28;20031;-84
2023/08/22 06:13:15;;;;;;;;;;;;;;;26.88;nan;100740.00;4973503;28;19945;-83
2023/08/22 06:15:40;;;;;;;;;;;;;;;27.19;nan;100743.03;4975079;28;20360;-84
2023/08/22 06:18:05;;;;;;;;;;;;;;;27.43;nan;100743.53;4973901;28;19922;-86
2023/08/22 06:20:30;;;;;;;;;;;;;;;27.64;nan;100749.97;4974413;28;20122;-83
2023/08/22 06:22:55;;;;;;;;;;;;;;;27.89;nan;100752.91;4990082;28;19969;-84
2023/08/22 06:25:21;;;;;;;;;;;;;;;28.11;nan;100733.72;4974273;28;19964;-83
2023/08/22 06:27:46;;;;;;;;;;;;;;;28.42;nan;100750.19;4973788;28;19921;-84
2023/08/22 06:30:12;;;;;;;;;;;;;;;28.35;nan;100745.00;4975975;28;20427;-86
2023/08/22 06:32:37;;;;;;;;;;;;;;;28.44;nan;100748.03;4975797;28;19914;-84
2023/08/22 06:35:03;;;;;;;;;;;;;;;28.68;nan;100742.16;4975286;28;20288;-84
2023/08/22 06:37:29;;;;;;;;;;;;;;;28.90;nan;100750.91;4980681;28;20373;-84
2023/08/22 06:39:54;;;;;;;;;;;;;;;29.20;nan;100752.91;4973439;28;19921;-86
2023/08/22 06:42:19;;;;;;;;;;;;;;;29.50;nan;100743.13;4971510;28;19945;-88
2023/08/22 06:44:44;;;;;;;;;;;;;;;29.78;nan;100741.75;4971300;28;19917;-86
2023/08/22 06:47:10;;;;;;;;;;;;;;;30.08;nan;100747.41;4955413;28;19921;-84
2023/08/22 06:49:35;;;;;;;;;;;;;;;30.43;nan;100749.25;4952785;28;19969;-84
2023/08/22 06:52:00;;;;;;;;;;;;;;;30.68;nan;100743.66;4975509;28;19914;-87
2023/08/22 06:54:25;;;;;;;;;;;;;;;30.82;nan;100756.69;4981950;28;19929;-84
2023/08/22 06:56:50;;;;;;;;;;;;;;;30.69;nan;100749.94;4982111;28;20423;-86
2023/08/22 06:59:16;;;;;;;;;;;;;;;30.81;nan;100749.59;4980084;28;19918;-84
2023/08/22 07:01:41;;;;;;;;;;;;;;;31.00;nan;100747.88;4973500;28;19970;-87
2023/08/22 07:04:07;;;;;;;;;;;;;;;31.05;nan;100749.75;4980195;28;19918;-84
2023/08/22 07:06:32;;;;;;;;;;;;;;;31.07;nan;100742.91;4980738;28;19914;-85
2023/08/22 07:08:57;;;;;;;;;;;;;;;31.46;nan;100749.47;4980312;28;19940;-88
2023/08/22 07:11:23;;;;;;;;;;;;;;;31.70;nan;100755.00;4980845;28;19914;-85
2023/08/22 07:13:48;;;;;;;;;;;;;;;31.86;nan;100752.94;4980802;28;19914;-85
2023/08/22 07:16:13;;;;;;;;;;;;;;;31.99;nan;100756.94;4981861;28;19926;-84
2023/08/22 07:18:39;;;;;;;;;;;;;;;32.13;nan;100746.91;4995846;28;20252;-85
2023/08/22 07:21:04;;;;;;;;;;;;;;;32.17;nan;100759.72;4995467;28;20430;-85
2023/08/22 07:23:30;;;;;;;;;;;;;;;32.06;nan;100760.97;4996075;28;19956;-87
2023/08/22 07:25:55;;;;;;;;;;;;;;;31.97;nan;100754.50;4997069;28;19914;-85
2023/08/22 07:28:20;;;;;;;;;;;;;;;32.25;nan;100755.56;4981936;28;19949;-85
2023/08/22 07:30:46;;;;;;;;;;;;;;;32.62;nan;100764.97;4981373;28;19949;-84
2023/08/22 07:33:12;;;;;;;;;;;;;;;32.82;nan;100765.78;4975482;28;19993;-83
2023/08/22 07:35:41;;;;;;;;;;;;;;;33.10;nan;100758.56;4978340;28;19914;-83
2023/08/22 07:38:07;;;;;;;0.15;0.08;;;;;;;;;;4976647;28;19958;-84
2023/08/22 07:40:36;;;;;;;2.75;1.85;;;;;;;;;;4994572;28;20448;-83
2023/08/22 07:43:01;;;;;;;3.30;2.78;;;;;;;;;;4978945;28;20038;-83
2023/08/22 07:45:26;;;;;;;2.50;2.17;;;;;;;33.52;nan;100762.28;4971706;28;20412;-85
2023/08/22 07:47:52;;;;;;;0.60;0.28;;;;;;;33.70;nan;100755.16;4965459;28;20035;-86
2023/08/22 07:50:17;;;;;;;0.00;0.00;;;;;;;34.03;nan;100764.13;4966645;28;20034;-84
2023/08/22 07:52:43;;;;;;;0.00;0.00;;;;;;;;;;4961121;28;20042;-85
2023/08/22 07:55:11;;;;;;;0.00;0.00;;;;;;;;;;4959669;28;20458;-84
2023/08/22 07:57:36;;;;;;;0.00;0.00;;;;;;;34.52;nan;100753.59;4959510;28;20043;-84
2023/08/22 08:00:06;;;;;;;0.00;0.00;;;;;;;;;;4959175;28;20066;-85
2023/08/22 08:02:31;;;;;;;0.00;0.00;;;;;;;35.06;nan;100757.31;4954432;28;20348;-87
2023/08/22 08:04:57;;;;;;;0.00;0.00;;;;;;;35.31;nan;100736.69;4979224;28;20035;-86
2023/08/22 08:07:22;;;;;;;0.00;0.00;;;;;;;35.46;nan;100744.53;4980775;28;20086;-84
2023/08/22 08:09:48;;;;;;;0.00;0.00;;;;;;;;;;4961599;28;20071;-86
2023/08/22 08:12:13;;;;;;;0.00;0.00;;;;;;;;;;4960572;28;20043;-85
2023/08/22 08:14:38;;;;;;;0.00;0.00;;;;;;;;;;4959279;28;20035;-83
2023/08/22 08:17:04;;;;;;;0.00;0.00;;;;;;;35.50;nan;100733.72;4960619;28;20039;-83
2023/08/22 08:19:29;;;;;;;0.00;0.00;;;;;;;35.63;nan;100749.34;4965288;28;20034;-83
2023/08/22 08:21:54;;;;;;;0.00;0.00;;;;;;;;;;4972428;28;20038;-83
2023/08/22 08:24:20;;;;;;;0.00;0.00;;;;;;;;;;4979474;28;20066;-84
2023/08/22 08:26:45;;;;;;;0.00;0.00;;;;;;;;;;5000002;28;20035;-84
2023/08/22 08:29:13;;;;;;;0.00;0.00;;;;;;;36.64;nan;100759.78;4983120;28;20042;-84
2023/08/22 08:31:38;;;;;;;0.00;0.00;;;;;;;36.76;nan;100755.28;4971512;28;20038;-83
2023/08/22 08:34:04;;;;;;;0.00;0.00;;;;;;;36.70;nan;100758.50;4982199;28;20047;-84
2023/08/22 08:36:29;;;;;;;0.00;0.00;;;;;;;36.72;nan;100734.19;4987408;28;20530;-84
2023/08/22 08:38:55;;;;;;;0.00;0.00;;;;;;;36.79;nan;100756.56;4977071;28;20107;-84
2023/08/22 08:41:22;;;;;;;0.00;0.00;;;;;;;37.06;nan;100754.66;4985399;28;20035;-83
2023/08/22 08:43:48;;;;;;;0.00;0.00;;;;;;;;;;4984508;28;20054;-83
2023/08/22 08:46:15;;;;;;;0.00;0.00;;;;;;;37.89;nan;100759.03;4983281;28;20035;-84
2023/08/22 08:48:43;;;;;;;0.00;0.00;;;;;;;38.18;nan;100759.06;4980055;28;20502;-83
2023/08/22 08:51:09;;;;;;;0.00;0.00;;;;;;;38.39;nan;100723.22;4976105;28;20113;-83
2023/08/22 08:53:36;;;;;;;0.00;0.00;;;;;;;38.74;nan;100789.31;4975374;28;20408;-84
2023/08/22 08:56:09;;;;;;;0.00;0.00;;;;;;;39.10;nan;100746.44;4969999;28;20039;-83
2023/08/22 08:58:36;;;;;;;0.00;0.00;;;;;;;39.35;nan;100763.91;4977703;28;20054;-83
2023/08/22 09:01:02;;;;;;;0.00;0.00;;;;;;;39.15;nan;100764.78;4993653;28;20094;-83
2023/08/22 09:03:29;;;;;;;0.00;0.00;;;;;;;39.24;nan;100766.31;4968542;28;20449;-83
2023/08/22 09:05:54;;;;;;;0.00;0.00;;;;;;;39.36;nan;100768.34;4959515;28;20070;-83
2023/08/22 09:08:20;;;;;;;0.00;0.00;;;;;;;39.57;nan;100721.25;4958016;28;20039;-83
2023/08/22 09:10:52;;;;;;;0.00;0.00;;;;;;;;;;4960552;28;20094;-84
2023/08/22 09:13:28;;;;;;;0.00;0.00;;;;;;;39.68;nan;100765.88;4951677;28;20110;-83
2023/08/22 09:16:00;;;;;;;0.00;0.00;;;;;;;39.94;nan;100762.03;4975729;28;20093;-83
2023/08/22 09:18:27;;;;;;;0.00;0.00;;;;;;;40.36;nan;100746.00;4969033;28;20050;-83
2023/08/22 09:21:02;;;;;;;0.00;0.00;;;;;;;40.65;nan;100746.84;4978749;28;20082;-83
2023/08/22 09:23:30;;;;;;;0.00;0.00;;;;;;;40.43;nan;100767.53;4994959;28;20035;-83
2023/08/22 09:25:56;;;;;;;0.00;0.00;;;;;;;40.66;nan;100727.06;4994675;28;20041;-83
2023/08/22 09:28:21;;;;;;;;;;;;;;;40.34;nan;100753.84;4978588;28;20067;-83
2023/08/22 09:30:48;;;;;;;;;;;;;;;40.42;nan;100765.94;4975665;28;19925;-83
2023/08/22 09:33:13;;;;;;;;;;;;;;;40.69;nan;100769.94;4967883;28;19922;-83
2023/08/22 09:35:39;;;;;;;;;;;;;;;40.85;nan;100758.94;4979354;28;19922;-85
2023/08/22 09:38:05;;;;;;;;;;;;;;;41.06;nan;100778.16;4979249;28;19922;-86
2023/08/22 09:40:31;;;;;;;;;;;;;;;41.43;nan;100758.56;4994058;28;19914;-84
2023/08/22 09:42:56;;;;;;;;;;;;;;;41.72;nan;100749.84;4979555;28;19921;-85
2023/08/22 09:45:22;;;;;;;;;;;;;;;41.90;nan;100750.28;4995253;28;20428;-86
2023/08/22 09:47:49;;;;;;;;;;;;;;;42.31;nan;100753.69;4977795;28;19925;-85
2023/08/22 09:50:17;;;;;;;;;;;;;;;42.69;nan;100746.56;4961447;28;20295;-86
2023/08/22 09:52:42;;;;;;;;;;;;;;;42.01;nan;100739.47;4959358;28;19946;-85
2023/08/22 09:55:10;;;;;;;;;;;;;;;41.00;nan;100749.88;4959822;28;19987;-84
2023/08/22 09:57:36;;;;;;;;;;;;;;;41.45;nan;100737.63;4977020;28;19953;-85
2023/08/22 10:00:05;;;;;;;;;;;;;;;41.97;nan;100744.13;4990784;28;19921;-85
2023/08/22 10:02:32;;;;;;;;;;;;;;;42.64;nan;100749.63;4981849;28;19915;-87
2023/08/22 10:05:02;;;;;;;;;;;;;;;43.08;nan;100752.16;4997346;28;19957;-86
2023/08/22 10:07:28;;;;;;;;;;;;;;;43.18;nan;100751.53;4991247;28;19946;-86
2023/08/22 10:09:53;;;;;;;;;;;;;;;43.33;nan;100740.69;4981883;28;19918;-85
2023/08/22 10:12:20;;;;;;;;;;;;;;;43.60;nan;100741.56;4981236;28;19945;-85
2023/08/22 10:14:49;;;;;;;;;;;;;;;43.73;nan;100743.00;4979713;28;19913;-85
2023/08/22 10:17:15;;;;;;;;;;;;;;;43.89;nan;100745.66;4977865;28;19925;-85
2023/08/22 10:19:41;;;;;;;;;;;;;;;44.05;nan;100748.31;4973971;28;20292;-85
2023/08/22 10:22:14;;;;;;;;;;;;;;;43.79;nan;100737.91;4979821;28;20364;-85
2023/08/22 10:24:40;;;;;;;;;;;;;;;42.99;nan;100738.47;4980287;28;19922;-85
2023/08/22 10:27:06;;;;;;;;;;;;;;;42.55;nan;100746.25;4980550;28;19993;-85
2023/08/22 10:29:33;;;;;;;;;;;;;;;42.17;nan;100737.47;4983746;28;19918;-84
2023/08/22 10:31:59;;;;;;;;;;;;;;;41.84;nan;100745.38;4980252;28;19914;-85
2023/08/22 10:34:28;;;;;;;;;;;;;;;42.41;nan;100736.44;4984913;28;19929;-86
2023/08/22 10:36:57;;;;;;;;;;;;;;;42.35;nan;100731.50;4983781;28;20299;-86
2023/08/22 10:39:37;;;;;;;;;;;;;;;42.09;nan;100738.47;4983130;28;19922;-84
2023/08/22 10:42:02;;;;;;;;;;;;;;;42.30;nan;100737.34;4975346;28;20471;-84
2023/08/22 10:44:30;;;;;;;;;;;;;;;42.57;nan;100722.47;4957720;28;19969;-84
2023/08/22 10:47:01;;;;;;;;;;;;;;;41.88;nan;100733.16;4953991;28;19938;-84
2023/08/22 10:49:30;;;;;;;;;;;;;;;41.17;nan;100734.91;4977136;28;19956;-84
2023/08/22 10:52:00;;;;;;;;;;;;;;;41.00;nan;100735.19;4969634;28;19918;-84
2023/08/22 10:54:25;;;;;;;;;;;;;;;40.58;nan;100736.34;4959166;28;19915;-84
2023/08/22 10:57:11;;;;;;;;;;;;;;;41.02;nan;100722.56;4960341;28;20017;-84
2023/08/22 10:59:55;;;;;;;;;;;;;;;40.18;nan;100722.41;4967348;28;19954;-84
2023/08/22 11:02:21;;;;;;;;;;;;;;;40.54;nan;100719.59;4960767;28;19969;-84
2023/08/22 11:04:47;;;;;;;;;;;;;;;40.50;nan;100712.34;4979555;28;19914;-84
2023/08/22 11:07:18;;;;;;;;;;;;;;;41.56;nan;100713.75;4972032;28;19941;-84
2023/08/22 11:09:45;;;;;;;;;;;;;;;42.17;nan;100720.00;4977038;28;19929;-84
2023/08/22 11:12:20;;;;;;;;;;;;;;;42.45;nan;100713.47;4969119;28;19914;-84
2023/08/22 11:14:47;;;;;;;;;;;;;;;42.82;nan;100711.91;4993149;28;19921;-84
2023/08/22 11:17:13;;;;;;;;;;;;;;;42.88;nan;100722.72;4993771;28;19918;-84
2023/08/22 11:19:39;;;;;;;;;;;;;;;42.64;nan;100717.09;4992551;28;19918;-84
2023/08/22 11:22:05;;;;;;;;;;;;;;;43.47;nan;100718.69;4970059;28;19921;-84
2023/08/22 11:24:31;;;;;;;;;;;;;;;42.98;nan;100708.22;4974602;28;19917;-84
2023/08/22 11:26:56;;;;;;;;;;;;;;;42.00;nan;100704.50;4976309;28;19921;-84
2023/08/22 11:29:22;;;;;;;;;;;;;;;40.10;nan;100710.31;4976196;28;19957;-84
2023/08/22 11:31:48;;;;;;;;;;;;;;;39.17;nan;100705.22;4979249;28;20284;-85
2023/08/22 11:34:13;;;;;;;;;;;;;;;39.73;nan;100699.22;4976085;28;19972;-84
2023/08/22 11:36:39;;;;;;;;;;;;;;;40.73;nan;100705.13;4977685;28;19921;-84
2023/08/22 11:39:07;;;;;;;;;;;;;;;40.88;nan;100711.06;4991076;28;19918;-84
2023/08/22 11:41:33;;;;;;;;;;;;;;;40.47;nan;100702.75;4964233;28;20032;-87
2023/08/22 11:44:00;;;;;;;;;;;;;;;39.49;nan;100702.75;4978247;28;19918;-85
2023/08/22 11:46:26;;;;;;;;;;;;;;;40.60;nan;100703.53;4994694;28;19914;-84
2023/08/22 11:48:52;;;;;;;;;;;;;;;41.48;nan;100700.03;4978871;28;19945;-85
2023/08/22 11:51:21;;;;;;;;;;;;;;;41.97;nan;100700.47;4974600;28;19924;-85
2023/08/22 11:53:48;;;;;;;;;;;;;;;40.92;nan;100695.34;4959924;28;20398;-84
2023/08/22 11:56:14;;;;;;;;;;;;;;;41.61;nan;100692.44;4959700;28;19953;-84
2023/08/22 11:58:45;;;;;;;;;;;;;;;41.27;nan;100695.53;4967233;28;19918;-87
2023/08/22 12:01:11;;;;;;;;;;;;;;;40.37;nan;100683.84;4991715;28;19914;-84
2023/08/22 12:03:47;;;;;;;;;;;;;;;39.49;nan;100686.97;4988208;28;19920;-86
2023/08/22 12:06:13;;;;;;;;;;;;;;;39.04;nan;100673.94;4979799;28;19977;-87
2023/08/22 12:08:41;;;;;;;;;;;;;;;38.35;nan;100677.25;4981645;28;20352;-83
2023/08/22 12:11:22;;;;;;;;;;;;;;;37.58;nan;100688.38;4963285;28;19961;-85
2023/08/22 12:13:47;;;;;;;;;;;;;;;36.94;nan;100678.09;4962317;28;19933;-83
2023/08/22 12:16:13;;;;;;;;;;;;;;;36.68;nan;100684.41;4958451;28;20316;-84
2023/08/22 12:18:39;;;;;;;;;;;;;;;36.39;nan;100685.03;4961526;28;20288;-85
2023/08/22 12:21:05;;;;;;;;;;;;;;;36.27;nan;100680.16;4972922;28;19914;-83
2023/08/22 12:23:30;;;;;;;;;;;;;;;36.10;nan;100680.94;4962806;28;19922;-83
2023/08/22 12:25:56;;;;;;;;;;;;;;;36.07;nan;100681.53;4960700;28;19914;-83
2023/08/22 12:28:21;;;;;;;;;;;;;;;35.86;nan;100681.31;4960753;28;19926;-83
2023/08/22 12:30:47;;;;;;;;;;;;;;;35.84;nan;100671.75;4975506;28;19918;-84
2023/08/22 12:33:12;;;;;;;;;;;;;;;35.60;nan;100678.47;4978751;28;19914;-85
2023/08/22 12:35:38;;;;;;;;;;;;;;;35.17;nan;100676.25;4978542;28;19997;-86
2023/08/22 12:38:04;;;;;;;;;;;;;;;34.27;nan;100676.13;4987026;28;19926;-85
2023/08/22 12:40:29;;;;;;;;;;;;;;;33.75;nan;100670.84;4976980;28;19925;-87
2023/08/22 12:42:58;;;;;;;;;;;;;;;33.39;nan;100673.41;4977984;28;20395;-85
2023/08/22 12:45:26;;;;;;;;;;;;;;;33.35;nan;100662.25;5001564;28;20184;-85
2023/08/22 12:47:51;;;;;;;;;;;;;;;33.38;nan;100656.16;5001919;28;19914;-86
2023/08/22 12:50:17;;;;;;;;;;;;;;;33.67;nan;100657.84;4976254;28;19925;-86
2023/08/22 12:52:42;;;;;;;;;;;;;;;33.98;nan;100654.47;4964911;28;19915;-88
2023/08/22 12:55:08;;;;;;;;;;;;;;;34.15;nan;100653.88;4966316;28;20289;-87